createdAt,value
2022-12-15T00:02:35.556Z,99275.25
2022-12-15T00:06:07.105Z,99287.03
2022-12-15T00:09:38.010Z,99295.13
2022-12-15T00:13:09.204Z,99306.66
2022-12-15T00:16:40.066Z,99310.56
2022-12-15T00:20:11.624Z,99316.84
2022-12-15T00:23:42.576Z,99321.97
2022-12-15T00:27:13.746Z,99329.66
2022-12-15T00:30:45.661Z,99324.75
2022-12-15T00:34:21.551Z,99322.81
2022-12-15T00:37:52.931Z,99320.44
2022-12-15T00:41:05.594Z,99335.69
2022-12-15T00:44:20.785Z,99335.09
2022-12-15T00:47:33.657Z,99331.72
2022-12-15T00:50:54.708Z,99337.66
2022-12-15T00:54:25.925Z,99344.09
2022-12-15T00:57:57.229Z,99343.34
2022-12-15T01:01:29.041Z,99340.00
2022-12-15T01:05:00.264Z,99336.81
2022-12-15T01:08:31.622Z,99350.94
2022-12-15T01:12:02.441Z,99352.56
2022-12-15T01:15:33.913Z,99345.50
2022-12-15T01:19:05.062Z,99336.34
2022-12-15T01:22:17.671Z,99313.53
2022-12-15T01:25:30.053Z,99318.03
2022-12-15T01:28:42.616Z,99304.88
2022-12-15T01:31:55.526Z,99301.84
2022-12-15T01:35:08.437Z,99301.53
2022-12-15T01:38:20.737Z,99302.94
2022-12-15T01:41:33.381Z,99312.63
2022-12-15T01:44:47.424Z,99319.97
2022-12-15T01:48:04.938Z,99321.25
2022-12-15T01:51:26.389Z,99320.13
2022-12-15T01:54:44.907Z,99319.53
2022-12-15T01:58:04.873Z,99328.97
2022-12-15T02:01:17.620Z,99325.31
2022-12-15T02:04:30.378Z,99334.28
2022-12-15T02:07:43.349Z,99334.31
2022-12-15T02:11:27.695Z,99338.16
2022-12-15T02:15:03.027Z,99331.44
2022-12-15T02:18:33.341Z,99329.16
2022-12-15T02:22:08.927Z,99337.06
2022-12-15T02:26:09.012Z,99333.34
2022-12-15T02:29:49.158Z,99337.53
2022-12-15T02:33:06.484Z,99328.84
2022-12-15T02:36:23.101Z,99329.78
2022-12-15T02:39:35.444Z,99339.59
2022-12-15T02:42:55.514Z,99340.88
2022-12-15T02:46:35.753Z,99350.47
2022-12-15T02:49:59.386Z,99347.75
2022-12-15T02:53:26.669Z,99341.03
2022-12-15T02:56:53.263Z,99339.28
2022-12-15T03:00:10.628Z,99343.94
2022-12-15T03:03:23.268Z,99348.28
2022-12-15T03:06:35.655Z,99345.22
2022-12-15T03:09:48.256Z,99344.28
2022-12-15T03:13:00.915Z,99348.69
2022-12-15T03:16:13.596Z,99347.28
2022-12-15T03:19:26.045Z,99354.19
2022-12-15T03:22:38.691Z,99357.25
2022-12-15T03:25:50.986Z,99351.91
2022-12-15T03:29:03.625Z,99359.94
2022-12-15T03:32:16.005Z,99366.31
2022-12-15T03:35:28.700Z,99357.03
2022-12-15T03:38:41.053Z,99364.44
2022-12-15T03:41:53.634Z,99370.91
2022-12-15T03:45:06.396Z,99380.22
2022-12-15T03:48:18.994Z,99378.00
2022-12-15T03:51:31.370Z,99381.53
2022-12-15T03:54:43.909Z,99396.28
2022-12-15T03:57:56.479Z,99387.84
2022-12-15T04:01:13.386Z,99390.59
2022-12-15T04:04:26.060Z,99388.88
2022-12-15T04:07:38.362Z,99391.44
2022-12-15T04:10:50.955Z,99398.16
2022-12-15T04:14:03.234Z,99396.25
2022-12-15T04:17:15.901Z,99406.44
2022-12-15T04:20:28.314Z,99405.94
2022-12-15T04:23:59.404Z,99419.16
2022-12-15T04:27:30.353Z,99423.34
2022-12-15T04:31:04.759Z,99437.78
2022-12-15T04:34:38.309Z,99436.47
2022-12-15T04:38:09.162Z,99443.78
2022-12-15T04:41:40.022Z,99444.63
2022-12-15T04:45:14.283Z,99446.22
2022-12-15T04:48:49.797Z,99453.22
2022-12-15T04:52:20.797Z,99459.19
2022-12-15T04:55:55.357Z,99474.13
2022-12-15T04:59:26.562Z,99471.47
2022-12-15T05:02:57.906Z,99454.19
2022-12-15T05:06:29.239Z,99454.06
2022-12-15T05:10:03.255Z,99460.78
2022-12-15T05:13:35.185Z,99478.25
2022-12-15T05:17:06.448Z,99482.03
2022-12-15T05:20:37.865Z,99483.69
2022-12-15T05:24:08.997Z,99499.72
2022-12-15T05:27:40.196Z,99501.81
2022-12-15T05:31:11.196Z,99504.44
2022-12-15T05:34:30.566Z,99507.97
2022-12-15T05:37:42.900Z,99503.47
2022-12-15T05:40:58.232Z,99510.84
2022-12-15T05:44:10.556Z,99515.28
2022-12-15T05:47:23.128Z,99515.13
2022-12-15T05:50:35.476Z,99499.09
2022-12-15T05:53:51.713Z,99487.72
2022-12-15T05:57:04.094Z,99505.13
2022-12-15T06:00:17.169Z,99518.34
2022-12-15T06:03:30.186Z,99528.97
2022-12-15T06:06:42.809Z,99539.09
2022-12-15T06:09:56.183Z,99565.38
2022-12-15T06:13:09.312Z,99568.31
2022-12-15T06:16:22.880Z,99587.22
2022-12-15T06:19:36.297Z,99583.88
2022-12-15T06:22:50.087Z,99598.13
2022-12-15T06:26:18.545Z,99609.56
2022-12-15T06:29:31.148Z,99617.19
2022-12-15T06:32:43.496Z,99625.41
2022-12-15T06:36:00.262Z,99637.00
2022-12-15T06:39:13.888Z,99637.81
2022-12-15T06:42:27.631Z,99629.97
2022-12-15T06:45:40.267Z,99628.28
2022-12-15T06:48:53.948Z,99616.78
2022-12-15T06:52:09.549Z,99631.28
2022-12-15T06:55:25.442Z,99624.50
2022-12-15T06:58:39.174Z,99621.97
2022-12-15T07:01:54.102Z,99629.13
2022-12-15T07:05:09.978Z,99652.97
2022-12-15T07:08:41.148Z,99652.72
2022-12-15T07:11:58.893Z,99654.62
2022-12-15T07:15:16.192Z,99657.00
2022-12-15T07:18:33.648Z,99654.97
2022-12-15T07:21:52.673Z,99676.81
2022-12-15T07:25:11.698Z,99684.53
2022-12-15T07:28:29.043Z,99682.91
2022-12-15T07:31:52.895Z,99695.41
2022-12-15T07:35:13.975Z,99687.16
2022-12-15T07:38:38.861Z,99703.37
2022-12-15T07:41:56.573Z,99710.06
2022-12-15T07:45:16.075Z,99717.88
2022-12-15T07:48:50.520Z,99719.22
2022-12-15T07:52:07.399Z,99711.09
2022-12-15T07:55:43.310Z,99702.50
2022-12-15T07:59:05.108Z,99717.00
2022-12-15T08:02:33.030Z,99727.66
2022-12-15T08:05:49.266Z,99708.34
2022-12-15T08:09:07.329Z,99704.31
2022-12-15T08:12:31.681Z,99712.56
2022-12-15T08:16:07.300Z,99728.75
2022-12-15T08:19:42.965Z,99736.34
2022-12-15T08:23:08.158Z,99735.56
2022-12-15T08:26:30.098Z,99741.94
2022-12-15T08:29:52.172Z,99748.69
2022-12-15T08:33:14.885Z,99756.81
2022-12-15T08:36:42.899Z,99751.66
2022-12-15T08:40:03.449Z,99761.56
2022-12-15T08:43:24.173Z,99775.62
2022-12-15T08:46:37.825Z,99771.34
2022-12-15T08:50:01.297Z,99777.50
2022-12-15T08:53:30.963Z,99766.34
2022-12-15T08:56:47.082Z,99758.09
2022-12-15T09:03:42.372Z,99761.91
2022-12-15T09:07:11.228Z,99762.44
2022-12-15T09:10:28.222Z,99775.88
2022-12-15T09:14:13.296Z,99775.19
2022-12-15T09:17:38.443Z,99780.19
2022-12-15T09:21:09.931Z,99784.00
2022-12-15T09:24:35.515Z,99788.06
2022-12-15T09:27:51.429Z,99778.53
2022-12-15T09:31:06.536Z,99767.84
2022-12-15T09:34:26.684Z,99780.09
2022-12-15T09:37:51.582Z,99776.84
2022-12-15T09:41:37.740Z,99771.56
2022-12-15T09:45:11.799Z,99770.53
2022-12-15T09:48:27.597Z,99769.62
2022-12-15T09:51:57.840Z,99770.63
2022-12-15T09:55:27.920Z,99771.87
2022-12-15T09:58:58.858Z,99766.75
2022-12-15T10:02:49.875Z,99763.88
2022-12-15T10:06:41.057Z,99763.84
2022-12-15T10:10:03.191Z,99770.16
2022-12-15T10:13:56.802Z,99771.03
2022-12-15T10:17:57.727Z,99764.47
2022-12-15T10:21:24.722Z,99769.34
2022-12-15T10:25:09.340Z,99768.38
2022-12-15T10:28:49.366Z,99759.81
2022-12-15T10:32:50.858Z,99759.50
2022-12-15T10:36:17.219Z,99777.09
2022-12-15T10:39:40.976Z,99781.91
2022-12-15T10:42:57.392Z,99773.84
2022-12-15T10:46:26.133Z,99770.94
2022-12-15T10:49:42.514Z,99781.59
2022-12-15T10:53:07.679Z,99785.13
2022-12-15T10:56:33.936Z,99776.41
2022-12-15T10:59:59.373Z,99761.91
2022-12-15T11:03:25.804Z,99758.53
2022-12-15T11:06:46.529Z,99754.78
2022-12-15T11:10:27.763Z,99754.91
2022-12-15T11:13:45.423Z,99760.88
2022-12-15T11:17:00.850Z,99770.88
2022-12-15T11:24:09.473Z,99761.09
2022-12-15T11:27:50.917Z,99757.22
2022-12-15T11:31:30.211Z,99750.28
2022-12-15T11:34:49.695Z,99766.47
2022-12-15T11:38:18.933Z,99762.16
2022-12-15T11:41:52.768Z,99764.09
2022-12-15T11:45:32.857Z,99760.84
2022-12-15T11:49:05.423Z,99766.81
2022-12-15T11:52:42.866Z,99769.28
2022-12-15T11:56:35.789Z,99783.78
2022-12-15T12:00:21.253Z,99772.81
2022-12-15T12:03:42.614Z,99780.84
2022-12-15T12:07:22.058Z,99783.44
2022-12-15T12:11:01.533Z,99777.56
2022-12-15T12:14:58.920Z,99788.69
2022-12-15T12:18:32.553Z,99785.97
2022-12-15T12:21:51.468Z,99795.03
2022-12-15T12:25:09.949Z,99779.59
2022-12-15T12:28:50.381Z,99772.03
2022-12-15T12:32:40.090Z,99767.00
2022-12-15T12:36:00.841Z,99756.53
2022-12-15T12:39:24.724Z,99757.87
2022-12-15T12:42:50.699Z,99749.34
2022-12-15T12:46:04.856Z,99761.47
2022-12-15T12:49:31.582Z,99755.09
2022-12-15T12:52:54.747Z,99764.78
2022-12-15T12:56:07.179Z,99772.06
2022-12-15T12:59:37.560Z,99770.81
2022-12-15T13:03:21.413Z,99762.94
2022-12-15T13:06:44.678Z,99770.25
2022-12-15T13:10:10.104Z,99777.03
2022-12-15T13:13:32.277Z,99797.25
2022-12-15T13:17:16.741Z,99800.75
2022-12-15T13:20:28.177Z,99809.16
2022-12-15T13:23:41.393Z,99804.50
2022-12-15T13:27:04.325Z,99818.69
2022-12-15T13:30:16.983Z,99817.37
2022-12-15T13:33:30.172Z,99818.66
2022-12-15T13:36:46.142Z,99817.22
2022-12-15T13:40:33.245Z,99810.63
2022-12-15T13:43:46.306Z,99816.41
2022-12-15T13:47:28.429Z,99820.28
2022-12-15T13:51:16.722Z,99810.75
2022-12-15T13:54:33.602Z,99810.47
2022-12-15T13:57:51.283Z,99809.78
2022-12-15T14:01:31.715Z,99806.09
2022-12-15T14:05:02.921Z,99805.78
2022-12-15T14:08:15.504Z,99805.13
2022-12-15T14:15:02.679Z,99805.13
2022-12-15T14:18:24.029Z,99794.97
2022-12-15T14:21:37.239Z,99794.31
2022-12-15T14:24:50.319Z,99792.41
2022-12-15T14:28:05.501Z,99792.56
2022-12-15T14:31:22.751Z,99798.81
2022-12-15T14:34:37.075Z,99783.53
2022-12-15T14:37:49.777Z,99780.44
2022-12-15T14:41:02.446Z,99774.16
2022-12-15T14:44:31.380Z,99787.66
2022-12-15T14:51:44.491Z,99815.56
2022-12-15T14:54:58.922Z,99824.72
2022-12-15T14:58:29.777Z,99794.78
2022-12-15T15:01:58.698Z,99800.59
2022-12-15T15:03:15.898Z,99808.50
2022-12-15T15:05:27.269Z,99810.53
2022-12-15T15:08:43.496Z,99839.53
2022-12-15T15:12:07.010Z,99822.94
2022-12-15T15:15:20.856Z,99841.31
2022-12-15T15:18:34.023Z,99824.56
2022-12-15T15:21:46.698Z,99842.16
2022-12-15T15:24:59.376Z,99817.72
2022-12-15T15:28:17.692Z,99836.16
2022-12-15T15:31:41.345Z,99833.31
2022-12-15T15:34:54.275Z,99828.31
2022-12-15T15:38:16.771Z,99824.63
2022-12-15T15:41:30.531Z,99810.78
2022-12-15T15:44:43.179Z,99816.22
2022-12-15T15:47:56.009Z,99817.91
2022-12-15T15:51:09.175Z,99802.50
2022-12-15T15:54:23.244Z,99798.31
2022-12-15T15:57:35.857Z,99797.94
2022-12-15T16:00:48.209Z,99799.66
2022-12-15T16:04:00.860Z,99807.53
2022-12-15T16:07:24.412Z,99808.53
2022-12-15T16:10:37.028Z,99812.38
2022-12-15T16:13:49.385Z,99798.84
2022-12-15T16:17:01.978Z,99795.28
2022-12-15T16:20:15.873Z,99800.41
2022-12-15T16:23:29.202Z,99804.31
2022-12-15T16:26:44.169Z,99804.91
2022-12-15T16:29:58.022Z,99805.97
2022-12-15T16:33:10.789Z,99809.03
2022-12-15T16:36:23.477Z,99800.94
2022-12-15T16:39:35.827Z,99798.72
2022-12-15T16:42:53.069Z,99796.94
2022-12-15T16:46:05.775Z,99788.72
2022-12-15T16:49:18.453Z,99800.31
2022-12-15T16:52:30.754Z,99800.75
2022-12-15T16:55:43.394Z,99796.91
2022-12-15T16:59:15.490Z,99792.88
2022-12-15T17:02:30.041Z,99801.56
2022-12-15T17:05:43.981Z,99794.78
2022-12-15T17:08:56.633Z,99798.97
2022-12-15T17:12:13.510Z,99802.69
2022-12-15T17:15:27.479Z,99815.38
2022-12-15T17:18:40.735Z,99815.78
2022-12-15T17:21:53.412Z,99830.97
2022-12-15T17:25:06.126Z,99823.66
2022-12-15T17:28:21.087Z,99817.91
2022-12-15T17:31:35.890Z,99819.94
2022-12-15T17:34:49.874Z,99833.16
2022-12-15T17:38:02.242Z,99831.06
2022-12-15T17:41:34.971Z,99842.84
2022-12-15T17:44:48.016Z,99836.75
2022-12-15T17:48:00.760Z,99837.28
2022-12-15T17:51:19.144Z,99828.91
2022-12-15T17:54:31.773Z,99829.19
2022-12-15T17:57:44.056Z,99843.56
2022-12-15T18:00:57.267Z,99839.59
2022-12-15T18:04:10.401Z,99828.59
2022-12-15T18:07:23.419Z,99818.19
2022-12-15T18:10:39.349Z,99825.19
2022-12-15T18:13:51.978Z,99806.50
2022-12-15T18:17:04.578Z,99803.91
2022-12-15T18:20:17.807Z,99808.84
2022-12-15T18:23:30.919Z,99807.59
2022-12-15T18:26:43.833Z,99800.28
2022-12-15T18:29:59.677Z,99812.88
2022-12-15T18:33:12.079Z,99802.84
2022-12-15T18:36:24.788Z,99793.22
2022-12-15T18:39:37.145Z,99789.72
2022-12-15T18:42:49.806Z,99790.94
2022-12-15T18:46:02.175Z,99800.03
2022-12-15T18:49:14.776Z,99802.94
2022-12-15T18:52:32.980Z,99814.38
2022-12-15T18:55:47.632Z,99827.91
2022-12-15T18:58:59.980Z,99824.19
2022-12-15T19:02:12.770Z,99814.59
2022-12-15T19:05:29.364Z,99800.75
2022-12-15T19:08:42.113Z,99782.34
2022-12-15T19:12:13.073Z,99782.97
2022-12-15T19:15:25.798Z,99782.00
2022-12-15T19:18:57.081Z,99779.44
2022-12-15T19:22:29.717Z,99781.78
2022-12-15T19:25:42.600Z,99789.09
2022-12-15T19:28:55.454Z,99782.19
2022-12-15T19:32:07.997Z,99767.56
2022-12-15T19:35:20.634Z,99760.25
2022-12-15T19:38:33.065Z,99746.72
2022-12-15T19:41:45.725Z,99749.44
2022-12-15T19:44:58.239Z,99759.75
2022-12-15T19:48:12.000Z,99766.88
2022-12-15T19:51:25.043Z,99773.37
2022-12-15T19:54:37.666Z,99768.62
2022-12-15T19:57:50.002Z,99757.09
2022-12-15T20:01:07.245Z,99771.75
2022-12-15T20:04:24.022Z,99762.47
2022-12-15T20:07:36.790Z,99759.84
2022-12-15T20:10:49.836Z,99747.00
2022-12-15T20:14:02.235Z,99747.34
2022-12-15T20:17:15.143Z,99749.09
2022-12-15T20:20:28.043Z,99745.69
2022-12-15T20:23:56.248Z,99748.87
2022-12-15T20:27:15.964Z,99756.25
2022-12-15T20:30:35.249Z,99741.13
2022-12-15T20:33:47.727Z,99732.44
2022-12-15T20:37:00.358Z,99722.12
2022-12-15T20:40:26.588Z,99723.09
2022-12-15T20:43:39.209Z,99719.84
2022-12-15T20:46:51.570Z,99720.53
2022-12-15T20:50:06.978Z,99717.13
2022-12-15T20:53:21.277Z,99710.16
2022-12-15T20:56:33.915Z,99700.69
2022-12-15T20:59:46.252Z,99690.50
2022-12-15T21:02:58.978Z,99707.22
2022-12-15T21:06:11.424Z,99702.53
2022-12-15T21:09:24.189Z,99700.81
2022-12-15T21:12:36.724Z,99690.19
2022-12-15T21:15:49.384Z,99685.56
2022-12-15T21:19:19.815Z,99674.25
2022-12-15T21:22:33.329Z,99665.91
2022-12-15T21:25:45.642Z,99665.56
2022-12-15T21:28:59.723Z,99678.09
2022-12-15T21:32:12.532Z,99676.69
2022-12-15T21:35:30.122Z,99677.62
2022-12-15T21:38:45.589Z,99682.97
2022-12-15T21:41:59.309Z,99673.34
2022-12-15T21:45:19.659Z,99679.63
2022-12-15T21:48:50.781Z,99678.91
2022-12-15T21:52:04.078Z,99671.22
2022-12-15T21:55:17.813Z,99661.84
2022-12-15T21:58:30.622Z,99647.84
2022-12-15T22:01:43.524Z,99636.06
2022-12-15T22:04:56.260Z,99635.44
2022-12-15T22:08:22.037Z,99642.16
2022-12-15T22:11:34.637Z,99640.28
2022-12-15T22:14:47.056Z,99630.28
2022-12-15T22:17:59.658Z,99624.84
2022-12-15T22:21:12.038Z,99620.59
2022-12-15T22:24:24.683Z,99616.91
2022-12-15T22:27:36.989Z,99610.75
2022-12-15T22:30:51.244Z,99605.50
2022-12-15T22:34:14.498Z,99604.81
2022-12-15T22:37:27.102Z,99600.59
2022-12-15T22:40:39.380Z,99588.28
2022-12-15T22:43:53.025Z,99584.94
2022-12-15T22:47:05.931Z,99577.19
2022-12-15T22:50:23.654Z,99580.06
2022-12-15T22:53:36.145Z,99564.00
2022-12-15T22:57:04.061Z,99563.06
2022-12-15T23:00:16.947Z,99558.53
2022-12-15T23:03:29.658Z,99565.78
2022-12-15T23:06:42.168Z,99564.34
2022-12-15T23:10:14.680Z,99570.31
2022-12-15T23:13:27.014Z,99566.31
2022-12-15T23:16:39.643Z,99562.94
2022-12-15T23:19:51.976Z,99560.50
2022-12-15T23:23:04.697Z,99546.03
2022-12-15T23:26:17.423Z,99539.59
2022-12-15T23:29:30.026Z,99539.28
2022-12-15T23:32:42.377Z,99541.22
2022-12-15T23:35:55.604Z,99543.78
2022-12-15T23:39:08.131Z,99537.34
2022-12-15T23:42:21.185Z,99527.84
2022-12-15T23:45:33.488Z,99522.88
2022-12-15T23:48:46.116Z,99515.78
2022-12-15T23:51:58.439Z,99509.97
2022-12-15T23:55:11.048Z,99503.19
2022-12-15T23:58:23.354Z,99495.78
